createdAt,value
2018-11-28T00:01:11.803Z,5.30
2018-11-28T00:03:39.944Z,5.20
2018-11-28T00:06:08.043Z,5.30
2018-11-28T00:08:36.176Z,5.30
2018-11-28T00:11:04.290Z,5.20
2018-11-28T00:13:32.421Z,5.20
2018-11-28T00:16:00.544Z,5.20
2018-11-28T00:18:28.668Z,5.10
2018-11-28T00:20:56.855Z,5.10
2018-11-28T00:23:24.967Z,5.20
2018-11-28T00:25:58.698Z,5.10
2018-11-28T00:28:21.280Z,5.20
2018-11-28T00:30:49.387Z,5.10
2018-11-28T00:33:17.508Z,5.10
2018-11-28T00:35:45.616Z,5.20
2018-11-28T00:38:13.748Z,5.10
2018-11-28T00:40:41.843Z,5.10
2018-11-28T00:43:10.023Z,5.00
2018-11-28T00:45:38.183Z,5.00
2018-11-28T00:48:06.524Z,5.00
2018-11-28T00:50:34.649Z,5.10
2018-11-28T00:53:02.829Z,5.00
2018-11-28T00:55:30.944Z,4.80
2018-11-28T00:57:59.052Z,4.80
2018-11-28T01:00:27.627Z,4.90
2018-11-28T01:02:55.775Z,5.00
2018-11-28T01:05:24.013Z,4.80
2018-11-28T01:07:54.923Z,5.00
2018-11-28T01:10:23.827Z,4.90
2018-11-28T01:12:52.676Z,4.80
2018-11-28T01:15:21.177Z,4.70
2018-11-28T01:17:49.339Z,4.70
2018-11-28T01:20:19.867Z,4.80
2018-11-28T01:22:47.979Z,4.80
2018-11-28T01:25:19.951Z,4.80
2018-11-28T01:27:48.313Z,4.80
2018-11-28T01:30:20.399Z,4.80
2018-11-28T01:32:48.517Z,4.80
2018-11-28T01:35:17.635Z,4.70
2018-11-28T01:37:45.923Z,4.70
2018-11-28T01:40:17.873Z,4.50
2018-11-28T01:42:46.063Z,4.50
2018-11-28T01:45:15.062Z,4.70
2018-11-28T01:47:43.479Z,4.70
2018-11-28T01:50:12.492Z,4.60
2018-11-28T01:52:40.596Z,4.70
2018-11-28T01:55:09.867Z,4.60
2018-11-28T01:57:38.119Z,4.60
2018-11-28T02:00:24.561Z,4.70
2018-11-28T02:02:58.015Z,4.50
2018-11-28T02:05:26.128Z,4.60
2018-11-28T02:07:54.435Z,4.50
2018-11-28T02:10:22.542Z,4.50
2018-11-28T02:12:50.653Z,4.50
2018-11-28T02:15:20.595Z,4.50
2018-11-28T02:17:48.695Z,4.40
2018-11-28T02:20:17.955Z,4.40
2018-11-28T02:22:46.240Z,4.50
2018-11-28T02:25:15.173Z,4.40
2018-11-28T02:27:43.417Z,4.40
2018-11-28T02:30:12.722Z,4.40
2018-11-28T02:32:40.840Z,4.40
2018-11-28T02:35:10.174Z,4.20
2018-11-28T02:37:38.660Z,4.20
2018-11-28T02:40:08.453Z,4.00
2018-11-28T02:42:36.583Z,4.00
2018-11-28T02:45:08.319Z,4.20
2018-11-28T02:47:36.424Z,4.10
2018-11-28T02:50:05.160Z,3.80
2018-11-28T02:52:33.276Z,3.80
2018-11-28T02:55:01.380Z,3.90
2018-11-28T02:57:29.576Z,4.10
2018-11-28T02:59:57.689Z,4.20
2018-11-28T03:02:25.797Z,3.90
2018-11-28T03:04:53.943Z,4.10
2018-11-28T03:07:22.045Z,4.10
2018-11-28T03:09:50.148Z,3.90
2018-11-28T03:12:18.283Z,3.80
2018-11-28T03:14:46.421Z,3.80
2018-11-28T03:17:20.138Z,3.80
2018-11-28T03:19:48.252Z,3.80
2018-11-28T03:22:16.380Z,3.70
2018-11-28T03:24:44.479Z,3.70
2018-11-28T03:27:12.580Z,3.80
2018-11-28T03:29:40.693Z,3.70
2018-11-28T03:32:08.818Z,3.60
2018-11-28T03:34:36.937Z,3.60
2018-11-28T03:37:05.268Z,3.60
2018-11-28T03:39:33.403Z,3.70
2018-11-28T03:42:01.573Z,3.70
2018-11-28T03:44:29.683Z,3.60
2018-11-28T03:46:57.804Z,3.80
2018-11-28T03:49:25.915Z,3.80
2018-11-28T03:51:54.011Z,4.00
2018-11-28T03:54:22.156Z,4.00
2018-11-28T03:56:50.256Z,3.80
2018-11-28T03:59:18.367Z,3.70
2018-11-28T04:01:46.475Z,3.70
2018-11-28T04:04:14.618Z,3.60
2018-11-28T04:06:43.117Z,3.60
2018-11-28T04:09:11.017Z,3.90
2018-11-28T04:11:39.105Z,3.90
2018-11-28T04:14:07.201Z,4.00
2018-11-28T04:16:35.327Z,3.90
2018-11-28T04:19:05.147Z,3.70
2018-11-28T04:21:33.403Z,3.70
2018-11-28T04:24:01.592Z,3.60
2018-11-28T04:26:29.680Z,3.70
2018-11-28T04:28:57.795Z,3.60
2018-11-28T04:31:25.892Z,3.50
2018-11-28T04:33:53.988Z,3.60
2018-11-28T04:36:22.124Z,3.40
2018-11-28T04:38:50.273Z,3.50
2018-11-28T04:41:18.400Z,3.70
2018-11-28T04:43:46.495Z,3.50
2018-11-28T04:46:14.629Z,3.40
2018-11-28T04:48:42.744Z,3.40
2018-11-28T04:51:10.880Z,3.50
2018-11-28T04:53:39.012Z,3.60
2018-11-28T04:56:07.220Z,3.40
2018-11-28T04:58:35.356Z,3.70
2018-11-28T05:01:03.464Z,3.50
2018-11-28T05:03:32.217Z,3.40
2018-11-28T05:06:00.311Z,3.10
2018-11-28T05:08:28.412Z,3.40
2018-11-28T05:10:56.540Z,3.40
2018-11-28T05:13:24.718Z,3.20
2018-11-28T05:15:52.836Z,3.30
2018-11-28T05:18:20.991Z,3.20
2018-11-28T05:20:49.156Z,3.30
2018-11-28T05:23:17.267Z,3.40
2018-11-28T05:25:45.400Z,3.40
2018-11-28T05:28:13.541Z,3.20
2018-11-28T05:30:41.679Z,3.10
2018-11-28T05:33:09.799Z,3.00
2018-11-28T05:35:39.836Z,3.00
2018-11-28T05:38:09.347Z,3.10
2018-11-28T05:40:37.539Z,3.20
2018-11-28T05:43:05.762Z,3.20
2018-11-28T05:45:33.867Z,3.10
2018-11-28T05:48:01.969Z,3.10
2018-11-28T05:50:30.115Z,3.20
2018-11-28T05:52:58.267Z,3.20
2018-11-28T05:55:26.378Z,3.00
2018-11-28T05:57:54.467Z,2.90
2018-11-28T06:00:38.304Z,2.70
2018-11-28T06:03:07.842Z,2.90
2018-11-28T06:05:36.749Z,2.70
2018-11-28T06:08:05.134Z,2.60
2018-11-28T06:10:33.254Z,2.80
2018-11-28T06:13:01.485Z,3.10
2018-11-28T06:15:29.733Z,3.10
2018-11-28T06:17:57.909Z,3.10
2018-11-28T06:20:26.045Z,3.20
2018-11-28T06:22:54.183Z,2.90
2018-11-28T06:25:22.324Z,2.90
2018-11-28T06:27:50.462Z,3.00
2018-11-28T06:30:19.519Z,3.00
2018-11-28T06:32:51.281Z,3.10
2018-11-28T06:35:15.891Z,3.00
2018-11-28T06:37:44.220Z,2.70
2018-11-28T06:40:14.375Z,3.00
2018-11-28T06:42:42.976Z,3.10
2018-11-28T06:45:13.175Z,2.90
2018-11-28T06:47:41.303Z,2.90
2018-11-28T06:50:14.768Z,2.90
2018-11-28T06:52:43.605Z,3.00
2018-11-28T06:55:13.823Z,3.20
2018-11-28T06:57:41.969Z,3.10
2018-11-28T07:00:17.275Z,3.00
2018-11-28T07:02:45.652Z,2.90
2018-11-28T07:05:13.809Z,3.00
2018-11-28T07:07:42.220Z,3.20
2018-11-28T07:10:12.736Z,3.00
2018-11-28T07:12:40.943Z,3.10
2018-11-28T07:15:13.140Z,3.10
2018-11-28T07:17:41.871Z,3.20
2018-11-28T07:20:18.071Z,3.20
2018-11-28T07:22:46.190Z,3.10
2018-11-28T07:25:17.050Z,3.20
2018-11-28T07:27:45.948Z,3.30
2018-11-28T07:30:19.063Z,3.10
2018-11-28T07:32:47.816Z,3.30
2018-11-28T07:35:15.908Z,3.20
2018-11-28T07:37:44.112Z,3.30
2018-11-28T07:40:13.623Z,3.10
2018-11-28T07:42:43.288Z,3.00
2018-11-28T07:45:12.029Z,3.10
2018-11-28T07:47:40.135Z,3.10
2018-11-28T07:50:09.248Z,3.00
2018-11-28T07:52:37.714Z,3.20
2018-11-28T07:55:07.843Z,3.10
2018-11-28T07:57:36.075Z,3.30
2018-11-28T08:00:06.014Z,3.20
2018-11-28T08:02:34.115Z,3.10
2018-11-28T08:05:02.308Z,3.00
2018-11-28T08:07:30.371Z,2.90
2018-11-28T08:09:58.568Z,2.90
2018-11-28T08:12:26.709Z,3.00
2018-11-28T08:14:54.880Z,3.10
2018-11-28T08:17:22.983Z,3.00
2018-11-28T08:19:51.114Z,3.10
2018-11-28T08:22:19.249Z,3.10
2018-11-28T08:24:47.367Z,3.00
2018-11-28T08:27:15.537Z,3.00
2018-11-28T08:29:43.647Z,3.00
2018-11-28T08:32:11.755Z,3.10
2018-11-28T08:34:40.300Z,3.10
2018-11-28T08:37:08.423Z,3.00
2018-11-28T08:39:36.516Z,3.10
2018-11-28T08:42:04.751Z,2.90
2018-11-28T08:44:33.008Z,2.90
2018-11-28T08:47:01.123Z,2.70
2018-11-28T08:49:29.257Z,2.70
2018-11-28T08:51:57.425Z,2.90
2018-11-28T08:54:25.547Z,3.00
2018-11-28T08:56:53.671Z,2.90
2018-11-28T08:59:21.835Z,3.10
2018-11-28T09:01:49.953Z,3.10
2018-11-28T09:04:18.081Z,3.30
2018-11-28T09:06:46.283Z,3.10
2018-11-28T09:09:14.437Z,3.00
2018-11-28T09:11:42.511Z,3.20
2018-11-28T09:14:10.608Z,3.30
2018-11-28T09:16:38.810Z,3.30
2018-11-28T09:19:06.927Z,3.50
2018-11-28T09:21:35.044Z,3.40
2018-11-28T09:24:03.203Z,3.20
2018-11-28T09:26:31.371Z,3.00
2018-11-28T09:28:59.562Z,3.20
2018-11-28T09:31:27.757Z,3.20
2018-11-28T09:33:55.884Z,3.40
2018-11-28T09:36:24.045Z,3.50
2018-11-28T09:38:52.202Z,3.30
2018-11-28T09:41:20.311Z,3.30
2018-11-28T09:43:48.464Z,3.50
2018-11-28T09:46:16.594Z,3.60
2018-11-28T09:48:44.803Z,3.60
2018-11-28T09:51:12.929Z,3.50
2018-11-28T09:53:41.079Z,3.50
2018-11-28T09:56:09.179Z,3.50
2018-11-28T09:58:37.377Z,3.50
2018-11-28T10:01:05.896Z,3.70
2018-11-28T10:03:34.052Z,3.70
2018-11-28T10:06:02.271Z,3.80
2018-11-28T10:08:30.453Z,3.50
2018-11-28T10:10:58.568Z,3.60
2018-11-28T10:13:26.692Z,3.70
2018-11-28T10:15:54.932Z,3.70
2018-11-28T10:18:23.088Z,3.70
2018-11-28T10:20:51.212Z,3.60
2018-11-28T10:23:19.346Z,3.60
2018-11-28T10:25:47.455Z,4.40
2018-11-28T10:28:15.591Z,4.20
2018-11-28T10:30:43.746Z,3.60
2018-11-28T10:33:12.537Z,3.80
2018-11-28T10:35:40.972Z,3.60
2018-11-28T10:38:09.143Z,3.60
2018-11-28T10:40:37.752Z,3.60
2018-11-28T10:43:07.152Z,3.80
2018-11-28T10:45:35.681Z,3.80
2018-11-28T10:48:03.802Z,4.00
2018-11-28T10:50:32.244Z,4.00
2018-11-28T10:53:00.358Z,3.80
2018-11-28T10:55:29.303Z,4.00
2018-11-28T10:57:57.445Z,4.10
2018-11-28T11:00:34.236Z,3.80
2018-11-28T11:03:08.004Z,3.70
2018-11-28T11:05:41.496Z,3.90
2018-11-28T11:08:15.170Z,4.10
2018-11-28T11:10:48.663Z,4.20
2018-11-28T11:13:22.439Z,4.20
2018-11-28T11:15:55.949Z,4.20
2018-11-28T11:18:24.534Z,4.40
2018-11-28T11:20:52.697Z,4.30
2018-11-28T11:23:20.957Z,4.40
2018-11-28T11:25:49.246Z,4.20
2018-11-28T11:28:17.535Z,4.50
2018-11-28T11:30:45.692Z,4.50
2018-11-28T11:33:13.815Z,4.20
2018-11-28T11:35:41.995Z,4.40
2018-11-28T11:38:10.148Z,4.30
2018-11-28T11:40:38.328Z,4.50
2018-11-28T11:43:06.604Z,4.60
2018-11-28T11:45:35.045Z,4.80
2018-11-28T11:48:03.167Z,5.00
2018-11-28T11:50:31.304Z,5.30
2018-11-28T11:52:59.484Z,5.30
2018-11-28T11:55:27.658Z,5.30
2018-11-28T11:57:55.853Z,5.40
2018-11-28T12:00:25.844Z,5.20
2018-11-28T12:02:58.910Z,5.40
2018-11-28T12:05:27.093Z,5.30
2018-11-28T12:07:55.283Z,4.70
2018-11-28T12:10:23.438Z,5.10
2018-11-28T12:12:51.923Z,5.40
2018-11-28T12:15:19.804Z,5.30
2018-11-28T12:17:48.758Z,5.20
2018-11-28T12:20:43.718Z,5.60
2018-11-28T12:23:11.880Z,5.80
2018-11-28T12:25:40.099Z,5.80
2018-11-28T12:28:08.275Z,5.50
2018-11-28T12:30:36.603Z,5.30
2018-11-28T12:33:04.858Z,5.20
2018-11-28T12:35:32.965Z,5.30
2018-11-28T12:38:01.916Z,5.10
2018-11-28T12:40:31.036Z,5.10
2018-11-28T12:42:59.407Z,5.30
2018-11-28T12:45:27.515Z,5.20
2018-11-28T12:47:57.440Z,5.30
2018-11-28T12:50:28.535Z,5.20
2018-11-28T12:52:58.848Z,5.50
2018-11-28T12:55:27.155Z,5.90
2018-11-28T12:57:56.051Z,6.00
2018-11-28T13:00:28.527Z,6.00
2018-11-28T13:02:56.816Z,5.90
2018-11-28T13:05:26.066Z,5.60
2018-11-28T13:07:54.235Z,5.50
2018-11-28T13:10:28.669Z,5.40
2018-11-28T13:12:57.030Z,5.70
2018-11-28T13:15:25.873Z,5.80
2018-11-28T13:17:54.271Z,5.80
2018-11-28T13:20:22.667Z,5.70
2018-11-28T13:22:51.962Z,5.70
2018-11-28T13:25:23.080Z,5.70
2018-11-28T13:27:51.317Z,5.80
2018-11-28T13:30:20.140Z,5.50
2018-11-28T13:32:49.038Z,5.40
2018-11-28T13:35:18.240Z,5.30
2018-11-28T13:37:47.659Z,5.40
2018-11-28T13:40:17.167Z,5.30
2018-11-28T13:42:45.340Z,5.50
2018-11-28T13:45:15.819Z,5.50
2018-11-28T13:47:45.168Z,5.40
2018-11-28T13:50:13.360Z,5.40
2018-11-28T13:52:41.486Z,5.30
2018-11-28T13:55:41.800Z,5.40
2018-11-28T13:57:40.837Z,5.40
2018-11-28T14:00:09.570Z,5.20
2018-11-28T14:02:38.169Z,5.20
2018-11-28T14:05:09.524Z,5.10
2018-11-28T14:07:37.652Z,5.00
2018-11-28T14:10:08.320Z,5.20
2018-11-28T14:12:36.588Z,5.20
2018-11-28T14:15:07.396Z,5.20
2018-11-28T14:17:35.515Z,5.20
2018-11-28T14:20:03.771Z,5.00
2018-11-28T14:22:31.928Z,5.10
2018-11-28T14:25:00.044Z,5.00
2018-11-28T14:27:28.188Z,4.90
2018-11-28T14:29:56.329Z,5.10
2018-11-28T14:32:24.440Z,5.20
2018-11-28T14:34:52.698Z,4.90
2018-11-28T14:37:20.804Z,4.80
2018-11-28T14:39:48.988Z,5.00
2018-11-28T14:42:18.110Z,4.80
2018-11-28T14:44:48.188Z,4.80
2018-11-28T14:47:16.443Z,5.10
2018-11-28T14:49:44.914Z,4.90
2018-11-28T14:52:13.140Z,4.90
2018-11-28T14:54:41.302Z,5.10
2018-11-28T14:57:09.447Z,5.10
2018-11-28T14:59:40.522Z,5.00
2018-11-28T15:02:06.758Z,5.00
2018-11-28T15:04:34.956Z,4.90
2018-11-28T15:07:03.182Z,4.80
2018-11-28T15:09:37.450Z,4.70
2018-11-28T15:12:11.686Z,4.70
2018-11-28T15:14:37.902Z,4.70
2018-11-28T15:17:06.224Z,4.90
2018-11-28T15:19:34.411Z,4.70
2018-11-28T15:22:02.622Z,4.70
2018-11-28T15:24:30.947Z,4.70
2018-11-28T15:26:59.120Z,4.80
2018-11-28T15:29:27.267Z,4.80
2018-11-28T15:31:55.421Z,4.50
2018-11-28T15:34:23.584Z,4.60
2018-11-28T15:36:51.800Z,4.60
2018-11-28T15:39:19.933Z,4.80
2018-11-28T15:41:48.927Z,4.60
2018-11-28T15:44:17.152Z,4.60
2018-11-28T15:46:45.327Z,4.50
2018-11-28T15:49:13.523Z,4.80
2018-11-28T15:51:41.777Z,4.60
2018-11-28T15:54:09.946Z,4.60
2018-11-28T15:56:38.141Z,4.60
2018-11-28T15:59:07.149Z,4.70
2018-11-28T16:01:35.299Z,4.40
2018-11-28T16:04:03.519Z,4.40
2018-11-28T16:06:31.743Z,4.50
2018-11-28T16:08:59.915Z,4.60
2018-11-28T16:11:28.096Z,4.50
2018-11-28T16:13:56.269Z,4.40
2018-11-28T16:16:24.439Z,4.40
2018-11-28T16:18:57.733Z,4.40
2018-11-28T16:21:21.248Z,4.40
2018-11-28T16:23:49.861Z,4.20
2018-11-28T16:26:18.102Z,4.20
2018-11-28T16:28:47.468Z,4.30
2018-11-28T16:31:15.664Z,4.40
2018-11-28T16:33:43.868Z,4.40
2018-11-28T16:36:18.330Z,4.40
2018-11-28T16:38:47.934Z,4.40
2018-11-28T16:41:16.322Z,4.40
2018-11-28T16:43:44.533Z,4.40
2018-11-28T16:46:12.820Z,4.50
2018-11-28T16:48:41.324Z,4.50
2018-11-28T16:51:10.263Z,4.50
2018-11-28T16:53:38.424Z,4.50
2018-11-28T16:56:06.663Z,4.30
2018-11-28T16:58:34.867Z,4.40
2018-11-28T17:01:03.051Z,4.50
2018-11-28T17:03:31.199Z,4.40
2018-11-28T17:05:59.540Z,4.40
2018-11-28T17:08:27.741Z,4.20
2018-11-28T17:10:58.243Z,4.40
2018-11-28T17:13:26.443Z,4.50
2018-11-28T17:15:54.612Z,4.40
2018-11-28T17:18:22.853Z,4.30
2018-11-28T17:20:51.080Z,4.40
2018-11-28T17:23:19.372Z,4.30
2018-11-28T17:25:47.497Z,4.20
2018-11-28T17:28:15.793Z,4.20
2018-11-28T17:30:44.063Z,4.20
2018-11-28T17:33:12.229Z,4.20
2018-11-28T17:35:40.576Z,4.60
2018-11-28T17:38:08.763Z,4.50
2018-11-28T17:40:37.042Z,4.50
2018-11-28T17:43:08.076Z,4.30
2018-11-28T17:45:36.269Z,4.50
2018-11-28T17:48:05.509Z,4.60
2018-11-28T17:50:34.104Z,4.30
2018-11-28T17:53:09.672Z,4.50
2018-11-28T17:55:48.458Z,4.30
2018-11-28T17:58:16.633Z,4.20
2018-11-28T18:00:45.364Z,4.30
2018-11-28T18:03:13.735Z,4.40
2018-11-28T18:05:41.944Z,4.40
2018-11-28T18:08:10.683Z,4.30
2018-11-28T18:10:39.094Z,4.30
2018-11-28T18:13:12.622Z,4.20
2018-11-28T18:15:42.002Z,4.20
2018-11-28T18:18:11.375Z,4.20
2018-11-28T18:20:39.657Z,4.10
2018-11-28T18:23:09.745Z,4.00
2018-11-28T18:25:38.862Z,4.20
2018-11-28T18:28:07.895Z,4.30
2018-11-28T18:30:36.656Z,4.30
2018-11-28T18:33:05.128Z,4.40
2018-11-28T18:35:33.244Z,4.50
2018-11-28T18:38:01.384Z,4.60
2018-11-28T18:40:29.543Z,4.40
2018-11-28T18:42:57.727Z,4.30
2018-11-28T18:45:27.141Z,4.50
2018-11-28T18:47:55.279Z,4.60
2018-11-28T18:50:23.477Z,4.50
2018-11-28T18:52:51.600Z,4.60
2018-11-28T18:55:20.641Z,4.30
2018-11-28T18:57:50.277Z,4.40
2018-11-28T19:00:23.696Z,4.20
2018-11-28T19:02:52.382Z,4.20
2018-11-28T19:05:20.515Z,4.00
2018-11-28T19:07:48.753Z,4.00
2018-11-28T19:10:18.888Z,3.80
2018-11-28T19:12:47.043Z,3.90
2018-11-28T19:15:18.205Z,3.90
2018-11-28T19:17:46.905Z,3.90
2018-11-28T19:20:15.872Z,4.00
2018-11-28T19:22:44.512Z,4.00
2018-11-28T19:25:16.441Z,4.10
2018-11-28T19:27:45.169Z,3.90
2018-11-28T19:30:32.676Z,4.00
2018-11-28T19:33:00.931Z,4.20
2018-11-28T19:35:29.320Z,4.30
2018-11-28T19:37:57.501Z,4.00
2018-11-28T19:40:30.318Z,4.10
2018-11-28T19:42:58.499Z,4.00
2018-11-28T19:45:26.750Z,4.10
2018-11-28T19:47:54.920Z,4.20
2018-11-28T19:50:25.884Z,3.90
2018-11-28T19:52:54.069Z,3.90
2018-11-28T19:55:22.309Z,4.00
2018-11-28T19:57:50.979Z,3.90
2018-11-28T20:00:19.464Z,4.00
2018-11-28T20:02:47.735Z,4.00
2018-11-28T20:05:15.847Z,4.00
2018-11-28T20:07:46.966Z,4.00
2018-11-28T20:10:16.550Z,4.10
2018-11-28T20:12:44.688Z,3.90
2018-11-28T20:15:14.233Z,3.90
2018-11-28T20:17:42.456Z,4.00
2018-11-28T20:20:11.714Z,4.20
2018-11-28T20:22:39.906Z,4.00
2018-11-28T20:25:10.368Z,4.10
2018-11-28T20:27:38.572Z,4.00
2018-11-28T20:30:28.293Z,4.10
2018-11-28T20:32:56.660Z,4.10
2018-11-28T20:35:24.922Z,4.30
2018-11-28T20:37:53.195Z,4.10
2018-11-28T20:40:21.451Z,4.20
2018-11-28T20:42:51.015Z,4.10
2018-11-28T20:45:19.183Z,4.20
2018-11-28T20:47:47.425Z,4.00
2018-11-28T20:50:18.592Z,4.10
2018-11-28T20:52:48.416Z,4.30
2018-11-28T20:55:16.620Z,4.30
2018-11-28T20:57:44.819Z,4.10
2018-11-28T21:00:15.963Z,4.30
2018-11-28T21:02:44.211Z,4.10
2018-11-28T21:05:12.375Z,4.10
2018-11-28T21:07:40.530Z,4.20
2018-11-28T21:10:16.064Z,4.10
2018-11-28T21:12:44.284Z,4.00
2018-11-28T21:15:12.435Z,4.20
2018-11-28T21:17:40.712Z,4.30
2018-11-28T21:20:14.627Z,4.40
2018-11-28T21:22:43.855Z,4.30
2018-11-28T21:25:12.327Z,4.20
2018-11-28T21:27:40.438Z,4.20
2018-11-28T21:30:13.906Z,4.20
2018-11-28T21:32:42.215Z,4.20
2018-11-28T21:35:15.363Z,4.20
2018-11-28T21:37:43.578Z,4.30
2018-11-28T21:40:11.907Z,4.20
2018-11-28T21:42:40.047Z,4.20
2018-11-28T21:45:12.366Z,4.30
2018-11-28T21:47:40.498Z,4.30
2018-11-28T21:50:11.716Z,4.30
2018-11-28T21:52:39.865Z,4.10
2018-11-28T21:55:13.384Z,4.10
2018-11-28T21:57:41.515Z,4.30
2018-11-28T22:00:13.028Z,4.50
2018-11-28T22:02:42.091Z,4.20
2018-11-28T22:05:11.180Z,4.10
2018-11-28T22:07:39.387Z,4.30
2018-11-28T22:10:10.711Z,4.30
2018-11-28T22:12:38.859Z,4.50
2018-11-28T22:15:09.434Z,4.40
2018-11-28T22:17:39.334Z,4.30
2018-11-28T22:20:09.893Z,4.20
2018-11-28T22:22:38.039Z,4.30
2018-11-28T22:25:09.531Z,4.20
2018-11-28T22:27:37.659Z,4.30
2018-11-28T22:30:06.407Z,4.20
2018-11-28T22:32:34.611Z,4.00
2018-11-28T22:35:02.797Z,4.10
2018-11-28T22:37:30.896Z,4.30
2018-11-28T22:39:59.008Z,4.30
2018-11-28T22:42:27.107Z,4.30
2018-11-28T22:44:55.225Z,4.40
2018-11-28T22:47:23.379Z,4.50
2018-11-28T22:49:51.563Z,4.40
2018-11-28T22:52:19.731Z,4.40
2018-11-28T22:54:47.843Z,4.30
2018-11-28T22:57:16.093Z,4.20
2018-11-28T22:59:44.295Z,4.40
2018-11-28T23:02:49.483Z,4.40
2018-11-28T23:05:17.773Z,4.30
2018-11-28T23:07:48.083Z,4.50
2018-11-28T23:10:16.208Z,4.30
2018-11-28T23:12:44.316Z,4.20
2018-11-28T23:15:13.022Z,4.40
2018-11-28T23:17:41.210Z,4.30
2018-11-28T23:20:10.011Z,4.50
2018-11-28T23:22:38.144Z,4.50
2018-11-28T23:25:08.907Z,4.50
2018-11-28T23:27:37.051Z,4.50
2018-11-28T23:30:13.740Z,4.30
2018-11-28T23:32:41.879Z,4.40
2018-11-28T23:35:10.699Z,4.30
2018-11-28T23:37:39.564Z,4.30
2018-11-28T23:40:11.037Z,4.40
2018-11-28T23:42:39.148Z,4.50
2018-11-28T23:45:08.970Z,4.50
2018-11-28T23:47:37.221Z,4.30
2018-11-28T23:50:10.347Z,4.10
2018-11-28T23:52:38.463Z,4.10
2018-11-28T23:55:10.733Z,4.20
2018-11-28T23:57:38.897Z,4.30
